Time;durP1;ratioP1;P1;durP2;ratioP2;P2;SDS_P1;SDS_P2;PMS_P1;PMS_P2;Temp;Humidity;BMP_temperature;BMP_pressure;BME280_temperature;BME280_humidity;BME280_pressure;Samples;Min_cycle;Max_cycle;Signal;HPM_P1;HPM_P2
2021/07/08 00:02:54;;;;;;;14.58;2.20;;;;;;;17.84;80.79;101246.99;5138732;56;1140680;-85
2021/07/08 00:08:01;;;;;;;12.03;2.17;;;;;;;17.83;81.27;101245.30;5138808;56;1140687;-83
2021/07/08 00:13:07;;;;;;;21.30;2.77;;;;;;;17.88;81.49;101249.70;5139919;56;1140790;-85
2021/07/08 00:18:14;;;;;;;11.70;3.33;;;;;;;17.93;81.16;101244.25;5123776;56;1140641;-80
2021/07/08 00:23:22;;;;;;;12.20;2.92;;;;;;;18.00;81.45;101238.31;5138802;56;1140856;-81
2021/07/08 00:28:27;;;;;;;9.00;1.85;;;;;;;17.99;80.62;101229.94;5138716;56;1140707;-81
2021/07/08 00:33:33;;;;;;;14.40;2.57;;;;;;;17.95;80.62;101240.59;5138811;56;1138604;-80
2021/07/08 00:38:39;;;;;;;13.13;2.50;;;;;;;17.93;80.77;101239.40;5138618;56;1140654;-82
2021/07/08 00:43:46;;;;;;;7.37;2.10;;;;;;;17.83;80.67;101244.81;5138667;56;1140720;-92
2021/07/08 00:48:51;;;;;;;20.23;2.30;;;;;;;17.76;80.78;101249.05;5138745;56;1138612;-76
2021/07/08 00:53:57;;;;;;;11.73;2.27;;;;;;;17.73;80.92;101243.15;5138669;56;1140685;-79
2021/07/08 00:59:10;;;;;;;9.50;2.67;;;;;;;17.76;81.34;101242.86;5223419;55;1140845;-89
2021/07/08 01:04:17;;;;;;;8.33;2.45;;;;;;;17.80;80.98;101244.25;5226880;55;1138857;-79
2021/07/08 01:09:23;;;;;;;11.83;2.22;;;;;;;17.91;81.84;101237.36;5226019;55;1138874;-83
2021/07/08 01:14:29;;;;;;;11.43;2.20;;;;;;;17.93;80.98;101246.94;5225895;55;1141197;-87
2021/07/08 01:19:37;;;;;;;7.77;2.57;;;;;;;17.95;80.94;101241.44;5226003;55;1140969;-84
2021/07/08 01:24:43;;;;;;;14.77;3.93;;;;;;;17.89;80.75;101251.38;5226167;55;1138943;-79
2021/07/08 01:29:48;;;;;;;11.60;3.50;;;;;;;17.75;80.89;101252.72;5226477;55;1140676;-84
2021/07/08 01:34:55;;;;;;;19.10;5.50;;;;;;;17.72;81.10;101257.02;5226154;55;1140670;-89
2021/07/08 01:40:01;;;;;;;27.42;5.05;;;;;;;17.66;81.01;101262.13;5226364;55;1140761;-81
2021/07/08 01:45:09;;;;;;;7.53;2.57;;;;;;;17.59;81.14;101267.18;5224717;55;1233629;-81
2021/07/08 01:50:18;;;;;;;13.83;2.72;;;;;;;17.57;81.26;101265.14;5226689;55;1138581;-91
2021/07/08 01:55:24;;;;;;;8.88;2.55;;;;;;;17.71;82.40;101253.18;5205204;55;1140717;-83
2021/07/08 02:00:30;;;;;;;13.97;3.10;;;;;;;17.78;81.97;101254.26;5139309;56;1138762;-81
2021/07/08 02:05:36;;;;;;;12.03;3.43;;;;;;;17.77;81.76;101256.58;5139432;55;1140702;-80
2021/07/08 02:10:42;;;;;;;9.50;2.97;;;;;;;17.73;81.44;101249.34;5138999;56;1140946;-86
2021/07/08 02:15:48;;;;;;;14.60;2.80;;;;;;;17.71;81.48;101229.10;5139281;56;1138559;-83
2021/07/08 02:20:53;;;;;;;12.30;2.60;;;;;;;17.73;81.61;101225.27;5138905;56;1140681;-79
2021/07/08 02:26:01;;;;;;;13.83;3.97;;;;;;;17.69;81.77;101225.23;5139237;56;1140789;-82
2021/07/08 02:31:09;;;;;;;16.50;4.07;;;;;;;17.64;82.01;101221.30;5139263;56;1140659;-75
2021/07/08 02:36:15;;;;;;;6.35;3.30;;;;;;;17.70;82.42;101216.22;5139310;56;1140709;-83
2021/07/08 02:41:20;;;;;;;9.90;3.20;;;;;;;17.79;82.38;101234.05;5139336;56;1138839;-86
2021/07/08 02:46:26;;;;;;;18.37;3.47;;;;;;;17.81;82.04;101246.78;5142081;56;1138688;-91
2021/07/08 02:51:32;;;;;;;5.13;2.83;;;;;;;17.72;81.81;101245.50;5148867;56;1140658;-77
2021/07/08 02:56:38;;;;;;;12.23;3.70;;;;;;;17.67;82.07;101247.77;5149833;56;1138635;-79
2021/07/08 03:01:43;;;;;;;16.10;4.03;;;;;;;17.67;82.17;101253.97;5149535;56;1140891;-85
2021/07/08 03:06:49;;;;;;;13.90;3.23;;;;;;;17.67;82.53;101261.98;5149400;56;1140864;-85
2021/07/08 03:11:54;;;;;;;6.77;3.00;;;;;;;17.70;82.55;101255.02;5149577;56;1140708;-83
2021/07/08 03:17:00;;;;;;;13.27;3.07;;;;;;;17.71;82.41;101258.53;5149684;56;1138691;-83
2021/07/08 03:22:06;;;;;;;11.03;3.40;;;;;;;17.64;82.57;101262.77;5149564;56;1140914;-82
2021/07/08 03:27:12;;;;;;;17.53;4.33;;;;;;;17.61;82.85;101267.87;5149688;56;1140846;-81
2021/07/08 03:32:17;;;;;;;7.22;3.52;;;;;;;17.65;83.45;101273.81;5149682;56;1140785;-83
2021/07/08 03:37:23;;;;;;;19.90;4.35;;;;;;;17.78;84.07;101276.51;5149406;56;1138560;-82
2021/07/08 03:42:29;;;;;;;10.65;3.72;;;;;;;17.91;84.04;101280.18;5149335;56;1140922;-85
2021/07/08 03:47:34;;;;;;;12.87;4.47;;;;;;;17.95;83.90;101292.28;5149145;56;1140879;-76
2021/07/08 03:52:42;;;;;;;9.87;3.73;;;;;;;17.97;84.10;101286.30;5149161;56;1140568;-78
2021/07/08 03:57:54;;;;;;;14.60;4.12;;;;;;;18.01;83.84;101296.22;5149125;56;1138663;-81
2021/07/08 04:03:03;;;;;;;15.63;4.60;;;;;;;18.01;83.89;101292.20;5149118;56;1140448;-81
2021/07/08 04:08:10;;;;;;;8.53;4.13;;;;;;;18.05;84.02;101301.11;5169109;56;1140673;-80
2021/07/08 04:13:22;;;;;;;20.77;5.33;;;;;;;18.09;84.16;101307.02;5126947;56;1265967;-80
2021/07/08 04:18:27;;;;;;;19.62;4.17;;;;;;;18.11;84.20;101309.05;5149114;56;1140634;-82
2021/07/08 04:23:33;;;;;;;12.80;5.25;;;;;;;18.09;84.16;101306.52;5148610;56;1141106;-81
2021/07/08 04:28:39;;;;;;;25.60;4.83;;;;;;;18.14;84.05;101314.95;5147925;56;1140906;-83
2021/07/08 04:33:46;;;;;;;21.27;4.30;;;;;;;18.16;84.08;101298.25;5148909;56;1140770;-74
2021/07/08 04:38:53;;;;;;;13.80;3.97;;;;;;;18.22;84.39;101294.11;5147342;56;1141037;-80
2021/07/08 04:43:59;;;;;;;18.87;5.33;;;;;;;18.29;84.50;101303.25;5147400;56;1140826;-85
2021/07/08 04:49:05;;;;;;;16.80;5.87;;;;;;;18.40;84.70;101303.53;5146856;56;1140680;-86
2021/07/08 04:54:11;;;;;;;15.53;5.62;;;;;;;18.46;84.60;101305.62;5119078;56;1140855;-82
2021/07/08 04:59:17;;;;;;;17.32;7.67;;;;;;;18.49;84.64;101304.80;5117016;56;1140927;-83
2021/07/08 05:04:22;;;;;;;12.85;4.45;;;;;;;18.53;84.79;101298.64;5138832;55;1140679;-77
2021/07/08 05:09:28;;;;;;;16.12;4.55;;;;;;;18.59;84.74;101304.28;5192919;55;1140715;-74
2021/07/08 05:14:34;;;;;;;14.58;4.40;;;;;;;18.67;84.99;101310.20;5213893;55;1140898;-79
2021/07/08 05:19:40;;;;;;;24.37;4.87;;;;;;;18.71;84.85;101308.92;5214270;55;1140683;-76
2021/07/08 05:24:46;;;;;;;10.70;4.85;;;;;;;18.81;85.14;101315.03;5214384;55;1140837;-84
2021/07/08 05:29:52;;;;;;;17.13;4.63;;;;;;;18.91;85.10;101310.46;5214222;55;1141016;-81
2021/07/08 05:34:57;;;;;;;15.10;3.98;;;;;;;18.91;85.10;101309.62;5154927;55;1140959;-77
2021/07/08 05:40:05;;;;;;;11.25;3.42;;;;;;;18.91;85.14;101299.74;5145547;55;1140896;-81
2021/07/08 05:45:11;;;;;;;8.75;4.20;;;;;;;18.90;85.13;101296.72;5170537;55;1141247;-77
2021/07/08 05:50:18;;;;;;;15.68;3.82;;;;;;;18.87;85.15;101301.53;5142603;56;1138710;-80
2021/07/08 05:55:23;;;;;;;13.03;3.40;;;;;;;18.90;85.36;101296.72;5152522;56;1140795;-80
2021/07/08 06:00:29;;;;;;;20.50;3.65;;;;;;;18.97;85.50;101313.84;5214162;55;1140814;-80
2021/07/08 06:05:35;;;;;;;10.85;3.42;;;;;;;19.05;85.39;101329.68;5213976;56;1140748;-74
2021/07/08 06:10:45;;;;;;;16.42;3.80;;;;;;;19.14;85.55;101338.13;5162179;56;1140826;-80
2021/07/08 06:15:47;;;;;;;16.60;3.85;;;;;;;19.22;85.57;101332.84;5167470;55;1140676;-82
2021/07/08 06:20:54;;;;;;;9.58;3.27;;;;;;;19.23;85.50;101340.74;5140763;56;1140860;-77
2021/07/08 06:26:00;;;;;;;10.45;3.55;;;;;;;19.24;85.44;101346.95;5137391;56;1138912;-83
2021/07/08 06:31:06;;;;;;;14.60;4.53;;;;;;;19.16;85.36;101336.98;5131346;56;1140842;-85
2021/07/08 06:36:12;;;;;;;13.20;5.10;;;;;;;19.24;85.49;101349.13;5148006;56;1140975;-77
2021/07/08 06:41:18;;;;;;;9.76;3.94;;;;;;;19.28;85.38;101354.50;5134788;56;1140756;-84
2021/07/08 06:46:28;;;;;;;7.50;3.92;;;;;;;19.30;85.29;101348.49;5197896;55;1138655;-83
2021/07/08 06:51:33;;;;;;;14.07;3.45;;;;;;;19.35;85.51;101340.48;5213619;55;1138613;-83
2021/07/08 06:56:39;;;;;;;6.45;3.37;;;;;;;19.36;85.56;101340.34;5180866;55;1140955;-77
2021/07/08 07:01:45;;;;;;;7.97;2.85;;;;;;;19.42;85.77;101346.89;5147177;56;1138677;-81
2021/07/08 07:06:51;;;;;;;10.70;2.92;;;;;;;19.48;86.08;101348.97;5147346;56;1138643;-76
2021/07/08 07:11:57;;;;;;;16.10;3.40;;;;;;;19.54;85.77;101346.55;5146904;56;1140849;-83
2021/07/08 07:17:03;;;;;;;6.05;2.22;;;;;;;19.55;85.98;101346.89;5188145;55;1141186;-82
2021/07/08 07:22:08;;;;;;;2.33;1.55;;;;;;;19.60;85.91;101347.23;5234695;55;1138873;-76
2021/07/08 07:27:14;;;;;;;13.00;1.87;;;;;;;19.64;86.07;101337.03;5234250;55;1146137;-78
2021/07/08 07:32:21;;;;;;;5.65;2.40;;;;;;;19.61;85.75;101334.16;5164023;55;1140967;-76
2021/07/08 07:37:28;;;;;;;6.05;2.20;;;;;;;19.61;85.58;101337.34;5193970;55;1138802;-83
2021/07/08 07:42:34;;;;;;;3.75;1.87;;;;;;;19.59;85.58;101340.69;5235065;55;1138746;-82
2021/07/08 07:47:40;;;;;;;3.58;3.22;;;;;;;19.55;85.61;101340.68;5225135;55;1138652;-75
2021/07/08 07:52:46;;;;;;;2.33;1.70;;;;;;;19.61;85.73;101340.03;5164719;55;1138860;-84
2021/07/08 07:57:52;;;;;;;3.17;1.20;;;;;;;19.66;85.96;101336.38;5211719;55;1138633;-78
2021/07/08 08:02:59;;;;;;;5.67;1.50;;;;;;;19.66;85.58;101338.57;5165487;55;1138766;-80
2021/07/08 08:13:30;;;;;;;1.75;1.40;;;;;;;19.68;85.38;101338.91;5161090;55;1138772;-80
2021/07/08 08:18:36;;;;;;;4.75;1.70;;;;;;;19.64;85.24;101327.15;5151197;55;1138598;-84
2021/07/08 08:23:42;;;;;;;2.42;1.40;;;;;;;19.62;85.33;101343.06;5200057;55;1138603;-86
2021/07/08 08:28:51;;;;;;;4.20;1.05;;;;;;;19.62;85.36;101339.03;5158454;55;1138635;-78
2021/07/08 08:33:55;;;;;;;3.22;0.85;;;;;;;19.66;85.35;101342.59;5157552;55;1138857;-78
2021/07/08 08:39:01;;;;;;;4.40;1.87;;;;;;;19.67;85.40;101342.09;5153266;55;1138566;-82
2021/07/08 08:44:07;;;;;;;4.42;1.32;;;;;;;19.57;84.99;101334.63;5148258;56;1138808;-83
2021/07/08 08:49:13;;;;;;;3.20;1.55;;;;;;;19.55;85.37;101326.77;5132727;55;1138750;-77
2021/07/08 08:54:19;;;;;;;5.15;2.35;;;;;;;19.53;85.46;101323.39;5172426;55;1138804;-77
2021/07/08 08:59:24;;;;;;;5.73;1.90;;;;;;;19.54;85.78;101322.89;5143210;56;1139051;-82
2021/07/08 09:04:37;;;;;;;4.83;2.52;;;;;;;19.55;85.83;101325.42;5139782;55;1138691;-79
2021/07/08 09:09:42;;;;;;;5.53;1.77;;;;;;;19.53;85.87;101323.39;5137635;56;1138650;-76
2021/07/08 09:14:48;;;;;;;3.83;1.57;;;;;;;19.57;86.20;101319.88;5143858;55;1138826;-84
2021/07/08 09:20:12;;;;;;;2.17;1.35;;;;;;;19.62;86.25;101322.44;5162555;55;1138625;-83
2021/07/08 09:25:26;;;;;;;2.25;1.25;;;;;;;19.70;86.42;101321.66;5223266;55;1138555;-75
2021/07/08 09:30:32;;;;;;;1.90;1.20;;;;;;;19.75;86.18;101326.53;5215750;55;1138638;-81
2021/07/08 09:35:41;;;;;;;4.30;1.20;;;;;;;19.80;86.40;101322.88;5143548;55;1138691;-84
2021/07/08 09:40:47;;;;;;;5.28;1.30;;;;;;;19.86;86.57;101310.17;5137337;56;1138588;-77
2021/07/08 09:45:53;;;;;;;4.30;1.10;;;;;;;19.93;86.36;101309.85;5136842;56;1138667;-76
2021/07/08 09:50:59;;;;;;;3.47;0.90;;;;;;;19.99;86.26;101314.09;5136951;56;1138627;-79
2021/07/08 10:01:23;;;;;;;2.10;1.05;;;;;;;20.06;86.06;101329.05;5137181;56;1138771;-78
2021/07/08 10:06:32;;;;;;;3.00;1.00;;;;;;;20.18;86.09;101341.18;5142251;55;1138767;-75
2021/07/08 10:11:38;;;;;;;1.55;1.10;;;;;;;20.26;85.84;101333.67;5224560;55;1138718;-79
2021/07/08 10:16:53;;;;;;;1.50;1.10;;;;;;;20.17;85.19;101315.32;5224097;55;1138582;-74
2021/07/08 10:21:58;;;;;;;1.17;0.80;;;;;;;20.17;85.19;101315.32;5224378;55;1138560;-73
2021/07/08 10:27:10;;;;;;;3.75;1.00;;;;;;;20.22;85.17;101326.43;5224289;55;1138609;-75
2021/07/08 10:32:15;;;;;;;2.10;0.98;;;;;;;20.27;85.27;101320.58;5223120;55;1138603;-76
2021/07/08 10:37:32;;;;;;;1.30;1.18;;;;;;;20.27;84.86;101312.02;5224373;55;1138597;-77
2021/07/08 10:42:53;;;;;;;3.83;1.20;;;;;;;20.25;84.79;101315.87;5224154;55;1140581;-79
2021/07/08 10:48:17;;;;;;;6.80;1.60;;;;;;;20.22;84.56;101319.72;5223976;55;1138686;-78
2021/07/08 10:53:35;;;;;;;2.10;1.50;;;;;;;20.25;84.68;101315.37;4988389;58;1138708;-76
2021/07/08 10:58:53;;;;;;;8.60;2.00;;;;;;;20.23;84.44;101317.38;4988232;58;1138661;-76
2021/07/08 11:04:04;;;;;;;2.20;1.60;;;;;;;20.18;84.19;101331.78;4946413;58;1138739;-74
2021/07/08 11:09:20;;;;;;;6.20;2.22;;;;;;;20.15;84.08;101349.59;4908607;59;1138682;-76
2021/07/08 11:14:26;;;;;;;7.78;2.05;;;;;;;20.12;84.17;101349.91;4908734;59;1138754;-79
2021/07/08 11:19:36;;;;;;;2.50;2.10;;;;;;;20.18;84.15;101334.47;4908776;59;1138720;-79
2021/07/08 11:24:47;;;;;;;3.77;2.27;;;;;;;20.19;84.10;101315.16;4908584;59;1138802;-79
2021/07/08 11:29:55;;;;;;;2.55;2.20;;;;;;;20.21;84.09;101322.56;5055611;55;1138884;-80
2021/07/08 11:35:20;;;;;;;4.22;2.65;;;;;;;20.27;84.44;101323.27;5224192;55;1138610;-77
2021/07/08 11:40:26;;;;;;;6.53;2.83;;;;;;;20.32;84.38;101304.30;5136966;56;1139147;-74
2021/07/08 11:45:32;;;;;;;2.83;2.40;;;;;;;20.35;84.04;101317.91;5024141;57;1138706;-78
2021/07/08 11:50:40;;;;;;;4.67;2.77;;;;;;;20.35;83.66;101312.53;5068561;56;1138773;-82
2021/07/08 11:55:58;;;;;;;5.67;2.90;;;;;;;20.31;83.85;101285.68;4961564;58;1138714;-77
2021/07/08 12:01:13;;;;;;;4.90;3.17;;;;;;;20.33;84.13;101283.64;5083656;57;1139135;-82
2021/07/08 12:06:24;;;;;;;4.32;2.58;;;;;;;20.39;84.14;101300.50;5013517;56;1138776;-79
2021/07/08 12:11:41;;;;;;;3.55;3.08;;;;;;;20.47;84.05;101289.75;5035388;56;1138744;-77
2021/07/08 12:16:49;;;;;;;5.12;4.00;;;;;;;20.49;84.22;101281.03;5126725;56;1138932;-77
2021/07/08 12:21:58;;;;;;;3.40;3.17;;;;;;;20.50;83.71;101288.59;5126519;56;1138908;-79
2021/07/08 12:27:07;;;;;;;5.33;3.33;;;;;;;20.51;83.81;101290.27;5126398;56;1138651;-81
2021/07/08 12:32:20;;;;;;;3.42;3.15;;;;;;;20.53;83.64;101280.20;5126659;56;1138831;-76
2021/07/08 12:37:32;;;;;;;5.72;4.12;;;;;;;20.48;83.43;101269.94;5127170;55;1138650;-74
2021/07/08 12:42:46;;;;;;;5.87;3.67;;;;;;;20.45;83.54;101259.55;5127379;55;1138635;-78
2021/07/08 12:47:56;;;;;;;5.75;3.37;;;;;;;20.50;83.78;101267.09;5126654;55;1138743;-79
2021/07/08 12:53:14;;;;;;;8.10;4.33;;;;;;;20.55;83.79;101257.54;5126635;55;1138558;-81
2021/07/08 12:58:23;;;;;;;4.75;3.65;;;;;;;20.60;83.86;101256.55;5127715;56;1138558;-79
2021/07/08 13:03:32;;;;;;;3.85;3.50;;;;;;;20.67;83.76;101250.83;5003118;56;1138781;-76
2021/07/08 13:08:38;;;;;;;8.10;3.65;;;;;;;20.69;83.57;101246.13;5125213;56;1138842;-78
2021/07/08 13:13:44;;;;;;;5.45;3.45;;;;;;;20.70;83.60;101241.09;5133655;56;1138609;-78
2021/07/08 13:18:50;;;;;;;8.54;3.50;;;;;;;20.78;83.80;101240.77;5136340;56;1138811;-77
2021/07/08 13:23:56;;;;;;;4.08;3.72;;;;;;;20.80;83.74;101240.91;5166969;55;1138901;-79
2021/07/08 13:29:09;;;;;;;8.53;3.40;;;;;;;20.83;83.52;101257.22;5234471;55;1138706;-80
2021/07/08 13:34:24;;;;;;;8.75;5.28;;;;;;;20.82;83.41;101267.13;5235172;55;1138645;-77
2021/07/08 13:39:29;;;;;;;4.87;3.75;;;;;;;20.86;83.34;101268.48;5235116;55;1138641;-79
2021/07/08 13:44:40;;;;;;;4.22;3.72;;;;;;;20.88;83.20;101262.95;5235164;55;1138647;-76
2021/07/08 13:49:43;;;;;;;5.87;5.28;;;;;;;20.91;83.19;101266.14;5230724;55;1138825;-77
2021/07/08 13:54:49;;;;;;;7.50;4.50;;;;;;;20.84;83.16;101243.61;5217929;55;1138694;-78
2021/07/08 13:59:58;;;;;;;8.55;5.85;;;;;;;20.87;83.37;101236.56;5151911;55;1138589;-78
2021/07/08 14:05:04;;;;;;;6.30;4.60;;;;;;;20.87;83.20;101234.38;5143882;56;1138636;-76
2021/07/08 14:10:10;;;;;;;7.78;3.80;;;;;;;20.89;83.33;101245.30;5136964;56;1138756;-74
2021/07/08 14:15:16;;;;;;;11.43;5.12;;;;;;;20.95;83.40;101235.70;5136986;56;1138900;-80
2021/07/08 14:20:22;;;;;;;5.38;4.78;;;;;;;20.99;83.55;101234.36;5137254;56;1140698;-75
2021/07/08 14:25:27;;;;;;;6.65;4.72;;;;;;;21.15;83.95;101230.81;5137266;56;1138642;-75
2021/07/08 14:30:34;;;;;;;7.70;6.17;;;;;;;21.24;83.66;101240.58;5198275;55;1138720;-79
2021/07/08 14:35:40;;;;;;;15.65;10.10;;;;;;;21.25;82.98;101227.45;5224329;55;1138723;-76
2021/07/08 14:40:48;;;;;;;14.55;10.28;;;;;;;21.20;83.00;101206.47;5195471;55;1142922;-77
2021/07/08 14:45:54;;;;;;;17.57;11.05;;;;;;;21.20;83.02;101201.59;5223760;55;1142868;-75
2021/07/08 14:51:00;;;;;;;18.30;10.80;;;;;;;21.15;83.06;101166.25;5157713;55;1142977;-78
2021/07/08 14:56:06;;;;;;;13.98;9.83;;;;;;;21.17;83.33;101177.19;5145533;55;1142791;-77
2021/07/08 15:01:13;;;;;;;30.20;10.15;;;;;;;21.23;83.16;101194.03;5136683;56;1140661;-74
2021/07/08 15:06:19;;;;;;;11.60;8.43;;;;;;;21.26;83.05;101188.28;5139387;56;1142926;-75
2021/07/08 15:11:25;;;;;;;9.93;7.12;;;;;;;21.25;82.88;101189.79;5147108;56;1140814;-78
2021/07/08 15:16:30;;;;;;;14.70;8.60;;;;;;;21.24;82.87;101181.38;5147367;56;1138759;-76
2021/07/08 15:21:36;;;;;;;16.75;7.92;;;;;;;21.20;82.87;101178.73;5146990;56;1140792;-80
2021/07/08 15:26:42;;;;;;;14.00;7.92;;;;;;;21.21;82.98;101179.91;5146939;56;1140691;-76
2021/07/08 15:31:47;;;;;;;9.35;6.47;;;;;;;21.25;83.06;101170.95;5146839;56;1140659;-81
2021/07/08 15:36:55;;;;;;;10.10;8.08;;;;;;;21.29;83.11;101166.41;5146573;56;1138820;-74
2021/07/08 15:42:03;;;;;;;9.25;7.67;;;;;;;21.29;83.07;101157.00;5146693;56;1140765;-75
2021/07/08 15:47:08;;;;;;;9.08;7.62;;;;;;;21.29;83.15;101146.73;5146913;56;1138610;-79
2021/07/08 15:52:14;;;;;;;13.18;7.55;;;;;;;21.27;82.88;101139.34;5146932;56;1138609;-78
2021/07/08 15:57:20;;;;;;;10.32;7.22;;;;;;;21.27;83.08;101131.27;5146878;56;1140637;-79
2021/07/08 16:02:27;;;;;;;16.10;9.20;;;;;;;21.25;82.74;101141.36;5146955;56;1140997;-77
2021/07/08 16:07:33;;;;;;;15.07;8.70;;;;;;;21.22;82.97;101133.66;5156374;55;1140761;-75
2021/07/08 16:12:39;;;;;;;9.13;7.20;;;;;;;21.17;82.95;101138.17;5142423;55;1149046;-77
2021/07/08 16:17:45;;;;;;;11.73;6.83;;;;;;;21.14;83.05;101125.06;5154518;55;1138692;-79
2021/07/08 16:22:51;;;;;;;8.78;6.53;;;;;;;21.12;83.05;101133.81;5136487;56;1140733;-78
2021/07/08 16:27:57;;;;;;;9.68;8.53;;;;;;;21.16;83.07;101128.42;5110476;56;1139085;-79
2021/07/08 16:33:05;;;;;;;8.58;7.62;;;;;;;21.16;83.21;101118.17;5137045;56;1138606;-80
2021/07/08 16:38:13;;;;;;;13.45;7.58;;;;;;;21.17;83.22;101103.70;5136999;56;1138863;-74
2021/07/08 16:43:19;;;;;;;9.75;6.58;;;;;;;21.12;83.15;101107.41;5137056;56;1140898;-78
2021/07/08 16:48:26;;;;;;;12.18;7.58;;;;;;;21.11;83.21;101113.30;5116987;56;1138667;-76
2021/07/08 16:53:32;;;;;;;8.13;7.35;;;;;;;21.14;83.33;101126.41;5136832;56;1140730;-78
2021/07/08 16:58:38;;;;;;;12.65;8.80;;;;;;;21.18;83.42;101118.34;5137856;55;1138823;-79
2021/07/08 17:03:44;;;;;;;11.63;8.45;;;;;;;21.20;83.40;101128.95;5148409;55;1140789;-77
2021/07/08 17:08:50;;;;;;;16.42;7.67;;;;;;;21.19;83.45;101127.25;5143133;55;1140792;-80
2021/07/08 17:13:55;;;;;;;16.90;8.18;;;;;;;21.19;83.38;101129.46;5147502;55;1140747;-77
2021/07/08 17:19:01;;;;;;;7.75;6.67;;;;;;;21.22;83.29;101124.25;5147572;56;1140686;-83
2021/07/08 17:24:07;;;;;;;8.60;5.87;;;;;;;21.22;83.18;101124.25;5147616;56;1138821;-80
2021/07/08 17:29:12;;;;;;;12.75;6.28;;;;;;;21.22;83.30;101137.70;5157064;55;1138861;-81
2021/07/08 17:34:19;;;;;;;7.40;5.60;;;;;;;21.25;83.38;101140.02;5184628;55;1140740;-83
2021/07/08 17:39:24;;;;;;;6.15;5.55;;;;;;;21.19;83.26;101138.00;5200775;55;1138685;-83
2021/07/08 17:44:30;;;;;;;11.10;6.55;;;;;;;21.17;83.26;101136.83;5186860;55;1138768;-85
2021/07/08 17:49:37;;;;;;;12.05;5.78;;;;;;;21.14;83.27;101131.79;5190303;55;1140639;-79
2021/07/08 17:54:43;;;;;;;7.22;4.80;;;;;;;21.13;83.42;101135.99;5223765;55;1140663;-79
2021/07/08 17:59:49;;;;;;;9.65;5.75;;;;;;;21.16;83.50;101141.03;5177558;55;1138793;-84
2021/07/08 18:04:55;;;;;;;9.08;4.90;;;;;;;21.14;83.50;101139.02;5228762;55;1138707;-74
2021/07/08 18:10:05;;;;;;;15.72;5.64;;;;;;;21.13;83.57;101130.11;5172396;55;1138696;-89
2021/07/08 18:15:13;;;;;;;5.12;4.42;;;;;;;21.11;83.48;101122.72;5186061;55;1140797;-85
2021/07/08 18:20:23;;;;;;;8.88;4.80;;;;;;;21.11;83.67;101120.02;5156078;55;1138883;-79
2021/07/08 18:25:30;;;;;;;6.95;5.12;;;;;;;21.09;83.57;101118.01;5216927;55;1138830;-84
2021/07/08 18:30:36;;;;;;;5.17;4.08;;;;;;;20.99;83.63;101112.84;5184261;55;1138904;-85
2021/07/08 18:35:42;;;;;;;8.83;4.20;;;;;;;20.89;83.83;101110.02;5189951;55;1138743;-78
2021/07/08 18:40:48;;;;;;;5.80;3.98;;;;;;;20.84;84.15;101091.70;5153079;55;1138689;-81
2021/07/08 18:45:53;;;;;;;6.95;3.33;;;;;;;20.85;84.16;101096.57;5190595;55;1138791;-84
2021/07/08 18:50:59;;;;;;;5.92;4.80;;;;;;;20.82;84.36;101107.66;5162382;55;1138655;-79
2021/07/08 18:56:05;;;;;;;5.58;4.47;;;;;;;20.77;84.36;101093.91;5203803;55;1138617;-76
2021/07/08 19:01:11;;;;;;;7.67;4.58;;;;;;;20.75;84.47;101081.14;5175189;55;1138587;-81
2021/07/08 19:06:17;;;;;;;7.28;5.08;;;;;;;20.68;84.70;101078.29;5191327;55;1138840;-77
2021/07/08 19:11:24;;;;;;;7.15;4.70;;;;;;;20.64;84.82;101068.88;5156674;55;1138907;-80
2021/07/08 19:16:30;;;;;;;10.03;4.67;;;;;;;20.57;84.94;101083.52;5175385;55;1138744;-83
2021/07/08 19:21:35;;;;;;;6.43;5.03;;;;;;;20.57;85.15;101100.99;5153397;55;1140739;-81
2021/07/08 19:26:42;;;;;;;9.88;4.53;;;;;;;20.54;85.24;101099.98;5186067;55;1138795;-83
2021/07/08 19:31:48;;;;;;;7.92;4.97;;;;;;;20.57;85.40;101089.41;5225791;55;1138550;-74
2021/07/08 19:36:54;;;;;;;6.15;5.22;;;;;;;20.54;85.42;101073.61;5188222;55;1138509;-79
2021/07/08 19:42:00;;;;;;;7.35;4.83;;;;;;;20.56;85.66;101075.13;5194474;55;1138895;-80
2021/07/08 19:47:07;;;;;;;11.43;5.00;;;;;;;20.52;85.59;101064.88;5199504;55;1138745;-80
2021/07/08 19:52:12;;;;;;;5.92;4.37;;;;;;;20.47;85.75;101064.03;5185517;55;1140706;-83
2021/07/08 19:57:18;;;;;;;6.03;5.42;;;;;;;20.43;86.11;101060.03;5212913;55;1138700;-83
2021/07/08 20:02:24;;;;;;;5.28;4.78;;;;;;;20.38;86.10;101052.12;5202493;55;1138819;-79
2021/07/08 20:07:30;;;;;;;8.73;5.58;;;;;;;20.33;86.73;100991.65;5191839;55;1138733;-77
2021/07/08 20:12:35;;;;;;;7.45;4.60;;;;;;;20.33;86.73;100991.65;5188005;55;1138687;-85
2021/07/08 20:17:41;;;;;;;4.70;4.30;;;;;;;20.32;86.80;100994.00;5131054;56;1138714;-85
2021/07/08 20:22:47;;;;;;;5.37;4.67;;;;;;;20.29;86.75;100978.25;5127903;56;1138544;-82
2021/07/08 20:27:53;;;;;;;11.55;4.53;;;;;;;20.26;86.89;100972.37;5127945;56;1138662;-82
2021/07/08 20:32:59;;;;;;;5.72;4.70;;;;;;;20.26;87.15;100983.95;5128459;56;1141012;-83
2021/07/08 20:38:05;;;;;;;6.78;4.87;;;;;;;20.25;87.09;100952.73;5128505;56;1138660;-80
2021/07/08 20:43:11;;;;;;;4.85;4.37;;;;;;;20.27;87.21;100932.41;5128426;56;1138679;-80
2021/07/08 20:48:17;;;;;;;6.42;4.90;;;;;;;20.28;87.20;100932.75;5128458;56;1138710;-83
2021/07/08 20:53:26;;;;;;;6.20;4.90;;;;;;;20.32;87.29;100987.78;5128395;56;1138667;-82
2021/07/08 20:58:30;;;;;;;6.83;6.20;;;;;;;20.34;87.32;101008.11;5129120;56;1138780;-84
2021/07/08 21:03:40;;;;;;;6.45;5.03;;;;;;;20.35;87.27;101033.13;5128626;56;1138952;-83
2021/07/08 21:08:43;;;;;;;6.50;5.22;;;;;;;20.44;87.22;101027.28;5128779;56;1138753;-84
2021/07/08 21:13:48;;;;;;;11.40;6.85;;;;;;;20.41;86.92;101017.70;5111093;56;1138745;-82
2021/07/08 21:18:55;;;;;;;17.27;12.20;;;;;;;20.46;87.21;101019.89;5138851;55;1140959;-83
2021/07/08 21:24:00;;;;;;;13.32;9.43;;;;;;;20.50;86.94;101005.08;5172359;56;1142928;-84
2021/07/08 21:29:06;;;;;;;20.90;16.17;;;;;;;20.49;86.93;101017.68;5148282;55;1140729;-82
2021/07/08 21:34:12;;;;;;;17.05;12.33;;;;;;;20.49;86.82;101024.91;5053879;56;1142731;-80
2021/07/08 21:39:21;;;;;;;11.18;8.60;;;;;;;20.45;86.83;101023.09;5114759;55;1142742;-83
2021/07/08 21:44:26;;;;;;;9.15;7.47;;;;;;;20.40;86.80;101047.44;5061093;56;1140674;-78
2021/07/08 21:49:31;;;;;;;11.08;6.40;;;;;;;20.40;87.47;101065.73;5100041;56;1138742;-85
2021/07/08 21:54:39;;;;;;;10.88;7.12;;;;;;;20.54;88.10;101102.67;5127957;56;1140874;-85
2021/07/08 21:59:47;;;;;;;8.88;5.60;;;;;;;20.68;88.22;101119.45;5127862;56;1140862;-80
2021/07/08 22:04:52;;;;;;;7.35;6.33;;;;;;;20.63;87.05;101099.45;5140375;55;1138794;-78
2021/07/08 22:09:58;;;;;;;10.18;6.37;;;;;;;20.52;87.10;101067.06;5175064;55;1138848;-85
2021/07/08 22:15:05;;;;;;;12.37;7.28;;;;;;;20.43;87.14;101064.06;5214747;55;1140889;-82
2021/07/08 22:20:12;;;;;;;14.33;6.97;;;;;;;20.35;87.43;101059.98;5228824;55;1140774;-84
2021/07/08 22:25:18;;;;;;;13.18;7.05;;;;;;;20.39;88.00;101045.75;5235535;55;1141002;-80
2021/07/08 22:30:26;;;;;;;11.38;6.70;;;;;;;20.43;88.09;101065.41;5176306;55;1140899;-85
2021/07/08 22:35:31;;;;;;;8.45;5.55;;;;;;;20.48;88.25;101113.23;5128406;56;1141056;-78
2021/07/08 22:40:38;;;;;;;13.00;6.12;;;;;;;20.52;88.35;101100.65;5148276;56;1138798;-78
2021/07/08 22:45:43;;;;;;;8.33;6.37;;;;;;;20.54;88.03;101066.39;5149088;55;1140804;-83
